KSDF/SDF METAR and TAF weather

Enter ICAO airport designator
Station Type Date Time Source
KSDF METAR 2020/09/22 06:56 UTC NOAA

KSDF 220656Z 00000KT 10SM FEW250 14/10 A3028 RMK AO2 SLP250 T01440100


Station Type Date Time Source
KSDF Decoded METAR 2020/09/22 06:56 UTC NOAA

STANDIFORD FIELD, KY, United States (KSDF) 38-11N 085-44W 146M
Sep 22, 2020 - 02:56 AM EDT / 2020.09.22 0656 UTC
Wind: Calm:0
Visibility: 10 mile(s):0
Sky conditions: mostly clear
Temperature: 57.9 F (14.4 C)
Dew Point: 50.0 F (10.0 C)
Relative Humidity: 74%
Pressure (altimeter): 30.28 in. Hg (1025 hPa)
ob: KSDF 220656Z 00000KT 10SM FEW250 14/10 A3028 RMK AO2 SLP250 T01440100
cycle: 7

Station Type Date Time Source
KSDF TAF 2020/09/22 06:22 UTC NOAA

TAF KSDF 220520Z 2206/2312 VRB03KT P6SM FEW250
FM221500 25006KT P6SM SCT250
FM230000 VRB04KT P6SM SCT250

Example: see airport list